Accueil
METAR-TAF:

METAR-TAF

Aéroports :

Odiham, Angleterre

latitude: 51-14N, longitude: 000-57W, altitude: 123 m

Observation

Le bulletin a été fait il y a 34 minutes, à 01:50 UTC
Vent 10 kt de sud/sud-ouest
Température 17°C
Humidité 88%
Pression 1020 hPa
Visibilité 10 km ou plus
Quelques nuages à une hauteur de 1200 ft
Ciel couvert à une hauteur de 1900 ft

METAR: EGVO 190150Z 21010KT 9999 FEW012 OVC019 17/15 Q1020 WHT

Heure: 03:24 (02:24 UTC)

Prévision

Le bulletin a été fait il y a 15 heures et 49 minutes, à 10:35 UTC
Prévision valable du 17 à 12 UTC au 17 à 24 UTC
Vent 12 kt de ouest/sud-ouest
Visibilité 10 km ou plus
Nuages épars à une hauteur de 3500 ft
Temporairement
du 17 à 20 UTC au 17 à 24 UTC
Nuages épars à une hauteur de 2000 ft

TAF: EGVO 171035Z 1712/1724 25012KT 9999 SCT035 TEMPO 1720/1724 SCT020

Observations et prévisions météorologiques de plus de 4000 aéroports (messages METAR et TAF).

Les stations disponibles sont représentées par des disques jaunes et rouges sur la carte.

Passer la souris dessus pour voir le nom de la station.

Cliquer dessus pour voir les observations et prévisions météorologiques.

Pour changer de carte: cliquez sur les boutons verts avec une croix noire pour zoomer, sur le bouton vert avec un tiret pour effectuer un zoom arrière, ou sur les flèches vertes pour les cartes adjacentes.


METAR-TAF: